sensor_id;sensor_type;location;lat;lon;timestamp;pressure;altitude;pressure_sealevel;temperature;humidity
78679;BME280;67994;59.334;13.528;2023-03-04T00:00:00;100600.0;;;0.9;50.0
78679;BME280;67994;59.334;13.528;2023-03-04T00:01:00;100600.0;;;0.9;51.1
78679;BME280;67994;59.334;13.528;2023-03-04T00:02:00;100500.0;;;0.9;49.7
78679;BME280;67994;59.334;13.528;2023-03-04T00:03:00;100500.0;;;0.9;49.6
78679;BME280;67994;59.334;13.528;2023-03-04T00:04:00;100500.0;;;0.8;49.7
78679;BME280;67994;59.334;13.528;2023-03-04T00:05:00;100500.0;;;1.0;49.1
78679;BME280;67994;59.334;13.528;2023-03-04T00:06:00;100600.0;;;0.9;49.7
78679;BME280;67994;59.334;13.528;2023-03-04T00:07:00;100600.0;;;0.9;49.4
78679;BME280;67994;59.334;13.528;2023-03-04T00:08:00;100600.0;;;0.8;49.8
78679;BME280;67994;59.334;13.528;2023-03-04T00:09:00;100600.0;;;0.8;49.3
78679;BME280;67994;59.334;13.528;2023-03-04T00:10:00;100600.0;;;0.9;49.2
78679;BME280;67994;59.334;13.528;2023-03-04T00:11:00;100600.0;;;0.9;49.2
78679;BME280;67994;59.334;13.528;2023-03-04T00:12:00;100600.0;;;0.9;49.0
78679;BME280;67994;59.334;13.528;2023-03-04T00:13:00;100600.0;;;0.9;48.5
78679;BME280;67994;59.334;13.528;2023-03-04T00:14:00;100600.0;;;1.0;48.5
78679;BME280;67994;59.334;13.528;2023-03-04T00:15:00;100600.0;;;0.9;49.9
78679;BME280;67994;59.334;13.528;2023-03-04T00:16:00;100600.0;;;0.8;50.1
78679;BME280;67994;59.334;13.528;2023-03-04T00:17:00;100600.0;;;0.7;50.8
78679;BME280;67994;59.334;13.528;2023-03-04T00:18:00;100600.0;;;0.8;49.9
78679;BME280;67994;59.334;13.528;2023-03-04T00:19:00;100600.0;;;0.7;49.9
78679;BME280;67994;59.334;13.528;2023-03-04T00:20:00;100600.0;;;0.8;49.7
78679;BME280;67994;59.334;13.528;2023-03-04T00:21:00;100600.0;;;0.7;50.0
78679;BME280;67994;59.334;13.528;2023-03-04T00:22:00;100600.0;;;0.8;49.9
78679;BME280;67994;59.334;13.528;2023-03-04T00:23:00;100600.0;;;0.8;50.3
78679;BME280;67994;59.334;13.528;2023-03-04T00:24:00;100600.0;;;0.8;49.8
78679;BME280;67994;59.334;13.528;2023-03-04T00:25:00;100600.0;;;0.7;50.0
78679;BME280;67994;59.334;13.528;2023-03-04T00:26:00;100600.0;;;0.8;49.4
78679;BME280;67994;59.334;13.528;2023-03-04T00:27:00;100600.0;;;0.7;50.2
78679;BME280;67994;59.334;13.528;2023-03-04T00:28:00;100600.0;;;0.8;49.8
78679;BME280;67994;59.334;13.528;2023-03-04T00:29:00;100600.0;;;0.8;51.4
78679;BME280;67994;59.334;13.528;2023-03-04T00:30:00;100600.0;;;0.7;50.0
78679;BME280;67994;59.334;13.528;2023-03-04T00:31:00;100600.0;;;0.7;50.0
78679;BME280;67994;59.334;13.528;2023-03-04T00:32:00;100600.0;;;0.8;49.4
78679;BME280;67994;59.334;13.528;2023-03-04T00:33:00;100600.0;;;0.6;50.1
78679;BME280;67994;59.334;13.528;2023-03-04T00:34:00;100600.0;;;0.7;49.9
78679;BME280;67994;59.334;13.528;2023-03-04T00:35:00;100600.0;;;0.6;50.5
78679;BME280;67994;59.334;13.528;2023-03-04T00:36:01;100600.0;;;0.6;51.0
78679;BME280;67994;59.334;13.528;2023-03-04T00:37:00;100600.0;;;0.5;51.1
78679;BME280;67994;59.334;13.528;2023-03-04T00:38:00;100600.0;;;0.6;51.8
78679;BME280;67994;59.334;13.528;2023-03-04T00:39:00;100600.0;;;0.6;50.5
78679;BME280;67994;59.334;13.528;2023-03-04T00:40:00;100600.0;;;0.6;50.5
78679;BME280;67994;59.334;13.528;2023-03-04T00:41:00;100600.0;;;0.6;50.8
78679;BME280;67994;59.334;13.528;2023-03-04T00:42:00;100600.0;;;0.6;50.5
78679;BME280;67994;59.334;13.528;2023-03-04T00:43:01;100600.0;;;0.5;50.8
78679;BME280;67994;59.334;13.528;2023-03-04T00:44:00;100600.0;;;0.5;51.0
78679;BME280;67994;59.334;13.528;2023-03-04T00:45:00;100600.0;;;0.5;51.0
78679;BME280;67994;59.334;13.528;2023-03-04T00:46:00;100600.0;;;0.5;51.2
78679;BME280;67994;59.334;13.528;2023-03-04T00:47:00;100600.0;;;0.5;51.0
78679;BME280;67994;59.334;13.528;2023-03-04T00:48:00;100600.0;;;0.5;50.4
78679;BME280;67994;59.334;13.528;2023-03-04T00:49:00;100600.0;;;0.6;50.5
78679;BME280;67994;59.334;13.528;2023-03-04T00:50:00;100600.0;;;0.4;51.3
78679;BME280;67994;59.334;13.528;2023-03-04T00:51:00;100600.0;;;0.4;51.9
78679;BME280;67994;59.334;13.528;2023-03-04T00:52:00;100600.0;;;0.4;52.3
78679;BME280;67994;59.334;13.528;2023-03-04T00:53:00;100600.0;;;0.6;50.6
78679;BME280;67994;59.334;13.528;2023-03-04T00:54:00;100600.0;;;0.5;51.9
78679;BME280;67994;59.334;13.528;2023-03-04T00:55:00;100600.0;;;0.3;52.2
78679;BME280;67994;59.334;13.528;2023-03-04T00:56:00;100600.0;;;0.4;52.0
78679;BME280;67994;59.334;13.528;2023-03-04T00:57:00;100600.0;;;0.4;52.0
78679;BME280;67994;59.334;13.528;2023-03-04T00:58:00;100600.0;;;0.4;51.7
78679;BME280;67994;59.334;13.528;2023-03-04T00:59:00;100600.0;;;0.4;51.6
78679;BME280;67994;59.334;13.528;2023-03-04T01:00:00;100600.0;;;0.4;52.3
78679;BME280;67994;59.334;13.528;2023-03-04T01:01:00;100600.0;;;0.3;52.3
78679;BME280;67994;59.334;13.528;2023-03-04T01:02:00;100600.0;;;0.4;51.2
78679;BME280;67994;59.334;13.528;2023-03-04T01:03:00;100600.0;;;0.4;50.9
78679;BME280;67994;59.334;13.528;2023-03-04T01:04:00;100600.0;;;0.5;51.5
78679;BME280;67994;59.334;13.528;2023-03-04T01:05:00;100600.0;;;0.5;51.2
78679;BME280;67994;59.334;13.528;2023-03-04T01:06:00;100600.0;;;0.6;50.6
78679;BME280;67994;59.334;13.528;2023-03-04T01:07:00;100600.0;;;0.5;50.8
78679;BME280;67994;59.334;13.528;2023-03-04T01:08:00;100600.0;;;0.5;52.1
78679;BME280;67994;59.334;13.528;2023-03-04T01:09:00;100600.0;;;0.5;51.5
78679;BME280;67994;59.334;13.528;2023-03-04T01:10:00;100600.0;;;0.5;51.7
78679;BME280;67994;59.334;13.528;2023-03-04T01:11:00;100600.0;;;0.5;51.1
78679;BME280;67994;59.334;13.528;2023-03-04T01:12:00;100600.0;;;0.5;49.6
78679;BME280;67994;59.334;13.528;2023-03-04T01:13:00;100600.0;;;0.5;50.1
78679;BME280;67994;59.334;13.528;2023-03-04T01:14:00;100600.0;;;0.4;50.0
78679;BME280;67994;59.334;13.528;2023-03-04T01:15:01;100600.0;;;0.5;49.0
78679;BME280;67994;59.334;13.528;2023-03-04T01:16:01;100600.0;;;0.4;48.2
78679;BME280;67994;59.334;13.528;2023-03-04T01:17:00;100600.0;;;0.6;48.0
78679;BME280;67994;59.334;13.528;2023-03-04T01:18:00;100600.0;;;0.5;49.2
78679;BME280;67994;59.334;13.528;2023-03-04T01:19:00;100600.0;;;0.5;48.7
78679;BME280;67994;59.334;13.528;2023-03-04T01:20:00;100600.0;;;0.5;48.1
78679;BME280;67994;59.334;13.528;2023-03-04T01:21:00;100600.0;;;0.5;49.8
78679;BME280;67994;59.334;13.528;2023-03-04T01:22:00;100600.0;;;0.5;49.2
78679;BME280;67994;59.334;13.528;2023-03-04T01:23:01;100600.0;;;0.5;49.3
78679;BME280;67994;59.334;13.528;2023-03-04T01:24:00;100600.0;;;0.5;49.5
78679;BME280;67994;59.334;13.528;2023-03-04T01:25:00;100600.0;;;0.4;49.7
78679;BME280;67994;59.334;13.528;2023-03-04T01:26:00;100600.0;;;0.5;48.8
78679;BME280;67994;59.334;13.528;2023-03-04T01:27:00;100600.0;;;0.4;49.2
78679;BME280;67994;59.334;13.528;2023-03-04T01:28:00;100600.0;;;0.4;49.5
78679;BME280;67994;59.334;13.528;2023-03-04T01:29:01;100600.0;;;0.3;49.4
78679;BME280;67994;59.334;13.528;2023-03-04T01:30:00;100600.0;;;0.3;49.1
78679;BME280;67994;59.334;13.528;2023-03-04T01:31:00;100600.0;;;0.3;49.5
78679;BME280;67994;59.334;13.528;2023-03-04T01:32:00;100600.0;;;0.4;48.6
78679;BME280;67994;59.334;13.528;2023-03-04T01:33:00;100600.0;;;0.4;48.3
78679;BME280;67994;59.334;13.528;2023-03-04T01:34:00;100600.0;;;0.4;48.1
78679;BME280;67994;59.334;13.528;2023-03-04T01:35:00;100600.0;;;0.4;48.5
78679;BME280;67994;59.334;13.528;2023-03-04T01:36:00;100600.0;;;0.3;49.0
78679;BME280;67994;59.334;13.528;2023-03-04T01:37:00;100600.0;;;0.3;48.4
78679;BME280;67994;59.334;13.528;2023-03-04T01:38:00;100600.0;;;0.3;48.2
78679;BME280;67994;59.334;13.528;2023-03-04T01:39:00;100600.0;;;0.3;48.5
78679;BME280;67994;59.334;13.528;2023-03-04T01:40:00;100600.0;;;0.4;48.0
78679;BME280;67994;59.334;13.528;2023-03-04T01:41:00;100600.0;;;0.3;48.5
78679;BME280;67994;59.334;13.528;2023-03-04T01:42:00;100600.0;;;0.2;48.9
78679;BME280;67994;59.334;13.528;2023-03-04T01:43:00;100600.0;;;0.2;49.3
78679;BME280;67994;59.334;13.528;2023-03-04T01:44:01;100600.0;;;0.1;50.0
78679;BME280;67994;59.334;13.528;2023-03-04T01:45:01;100600.0;;;0.1;49.9
78679;BME280;67994;59.334;13.528;2023-03-04T01:46:01;100600.0;;;0.1;49.5
78679;BME280;67994;59.334;13.528;2023-03-04T01:47:00;100600.0;;;0.1;49.6
78679;BME280;67994;59.334;13.528;2023-03-04T01:48:00;100600.0;;;0.2;49.2
78679;BME280;67994;59.334;13.528;2023-03-04T01:49:00;100600.0;;;0.2;49.0
78679;BME280;67994;59.334;13.528;2023-03-04T01:50:03;100600.0;;;0.2;48.9
78679;BME280;67994;59.334;13.528;2023-03-04T01:51:00;100600.0;;;0.2;48.8
78679;BME280;67994;59.334;13.528;2023-03-04T01:52:00;100600.0;;;0.1;48.5
78679;BME280;67994;59.334;13.528;2023-03-04T01:53:01;100600.0;;;0.1;48.4
78679;BME280;67994;59.334;13.528;2023-03-04T01:54:00;100600.0;;;0.2;47.2
78679;BME280;67994;59.334;13.528;2023-03-04T01:55:00;100600.0;;;0.2;47.0
78679;BME280;67994;59.334;13.528;2023-03-04T01:56:18;100600.0;;;0.2;46.9
78679;BME280;67994;59.334;13.528;2023-03-04T01:57:00;100600.0;;;0.1;47.1
78679;BME280;67994;59.334;13.528;2023-03-04T01:58:00;100600.0;;;0.2;46.4
78679;BME280;67994;59.334;13.528;2023-03-04T01:59:10;100600.0;;;0.2;47.3
78679;BME280;67994;59.334;13.528;2023-03-04T02:00:15;100600.0;;;0.2;47.1
78679;BME280;67994;59.334;13.528;2023-03-04T02:01:00;100600.0;;;0.2;47.1
78679;BME280;67994;59.334;13.528;2023-03-04T02:02:00;100600.0;;;0.1;48.4
78679;BME280;67994;59.334;13.528;2023-03-04T02:03:03;100600.0;;;0.1;48.3
78679;BME280;67994;59.334;13.528;2023-03-04T02:04:00;100600.0;;;-0.0;48.4
78679;BME280;67994;59.334;13.528;2023-03-04T02:05:00;100600.0;;;-0.1;48.5
78679;BME280;67994;59.334;13.528;2023-03-04T02:06:00;100600.0;;;-0.1;48.3
78679;BME280;67994;59.334;13.528;2023-03-04T02:07:02;100600.0;;;-0.1;48.4
78679;BME280;67994;59.334;13.528;2023-03-04T02:08:01;100600.0;;;-0.1;48.6
78679;BME280;67994;59.334;13.528;2023-03-04T02:09:01;100600.0;;;-0.1;48.1
78679;BME280;67994;59.334;13.528;2023-03-04T02:10:00;100600.0;;;-0.0;47.6
78679;BME280;67994;59.334;13.528;2023-03-04T02:11:00;100600.0;;;-0.1;47.3
78679;BME280;67994;59.334;13.528;2023-03-04T02:12:00;100600.0;;;-0.0;47.0
78679;BME280;67994;59.334;13.528;2023-03-04T02:13:01;100600.0;;;0.0;46.9
78679;BME280;67994;59.334;13.528;2023-03-04T02:14:01;100600.0;;;-0.0;47.5
78679;BME280;67994;59.334;13.528;2023-03-04T02:15:00;100600.0;;;-0.0;46.6
78679;BME280;67994;59.334;13.528;2023-03-04T02:16:00;100600.0;;;-0.1;46.7
78679;BME280;67994;59.334;13.528;2023-03-04T02:17:00;100600.0;;;-0.1;46.1
78679;BME280;67994;59.334;13.528;2023-03-04T02:18:01;100600.0;;;-0.1;46.2
78679;BME280;67994;59.334;13.528;2023-03-04T02:19:01;100600.0;;;-0.2;46.6
78679;BME280;67994;59.334;13.528;2023-03-04T02:20:09;100600.0;;;-0.1;46.6
78679;BME280;67994;59.334;13.528;2023-03-04T02:21:06;100600.0;;;-0.1;46.0
78679;BME280;67994;59.334;13.528;2023-03-04T02:22:00;100600.0;;;-0.2;45.6
78679;BME280;67994;59.334;13.528;2023-03-04T02:23:06;100600.0;;;-0.2;46.0
78679;BME280;67994;59.334;13.528;2023-03-04T02:24:07;100600.0;;;-0.2;46.1
78679;BME280;67994;59.334;13.528;2023-03-04T02:25:06;100600.0;;;-0.2;46.2
78679;BME280;67994;59.334;13.528;2023-03-04T02:26:09;100600.0;;;-0.2;45.9
78679;BME280;67994;59.334;13.528;2023-03-04T02:27:00;100600.0;;;-0.2;45.3
78679;BME280;67994;59.334;13.528;2023-03-04T02:28:00;100600.0;;;-0.3;45.7
78679;BME280;67994;59.334;13.528;2023-03-04T02:29:01;100600.0;;;-0.3;46.1
78679;BME280;67994;59.334;13.528;2023-03-04T02:30:01;100600.0;;;-0.3;46.0
78679;BME280;67994;59.334;13.528;2023-03-04T02:31:00;100600.0;;;-0.3;46.1
78679;BME280;67994;59.334;13.528;2023-03-04T02:32:00;100600.0;;;-0.4;46.4
78679;BME280;67994;59.334;13.528;2023-03-04T02:33:00;100600.0;;;-0.3;45.8
78679;BME280;67994;59.334;13.528;2023-03-04T02:34:02;100600.0;;;-0.3;45.3
78679;BME280;67994;59.334;13.528;2023-03-04T02:35:00;100600.0;;;-0.3;45.7
78679;BME280;67994;59.334;13.528;2023-03-04T02:36:00;100600.0;;;-0.4;46.3
78679;BME280;67994;59.334;13.528;2023-03-04T02:37:01;100600.0;;;-0.4;46.0
78679;BME280;67994;59.334;13.528;2023-03-04T02:38:00;100600.0;;;-0.3;45.1
78679;BME280;67994;59.334;13.528;2023-03-04T02:39:03;100600.0;;;-0.3;44.5
78679;BME280;67994;59.334;13.528;2023-03-04T02:40:00;100600.0;;;-0.4;45.3
78679;BME280;67994;59.334;13.528;2023-03-04T02:41:01;100600.0;;;-0.4;45.4
78679;BME280;67994;59.334;13.528;2023-03-04T02:42:02;100600.0;;;-0.4;45.5
78679;BME280;67994;59.334;13.528;2023-03-04T02:43:00;100600.0;;;-0.5;46.0
78679;BME280;67994;59.334;13.528;2023-03-04T02:44:00;100600.0;;;-0.5;45.6
78679;BME280;67994;59.334;13.528;2023-03-04T02:45:01;100600.0;;;-0.4;45.2
78679;BME280;67994;59.334;13.528;2023-03-04T02:46:00;100600.0;;;-0.5;45.7
78679;BME280;67994;59.334;13.528;2023-03-04T02:47:01;100600.0;;;-0.4;44.9
78679;BME280;67994;59.334;13.528;2023-03-04T02:48:00;100600.0;;;-0.4;45.0
78679;BME280;67994;59.334;13.528;2023-03-04T02:49:00;100600.0;;;-0.3;43.9
78679;BME280;67994;59.334;13.528;2023-03-04T02:50:00;100600.0;;;-0.3;43.6
78679;BME280;67994;59.334;13.528;2023-03-04T02:51:01;100600.0;;;-0.4;45.0
78679;BME280;67994;59.334;13.528;2023-03-04T02:52:03;100600.0;;;-0.4;44.8
78679;BME280;67994;59.334;13.528;2023-03-04T02:53:00;100600.0;;;-0.4;45.1
78679;BME280;67994;59.334;13.528;2023-03-04T02:54:00;100600.0;;;-0.4;45.7
78679;BME280;67994;59.334;13.528;2023-03-04T02:55:00;100600.0;;;-0.5;46.1
78679;BME280;67994;59.334;13.528;2023-03-04T02:56:00;100600.0;;;-0.5;46.2
78679;BME280;67994;59.334;13.528;2023-03-04T02:57:02;100600.0;;;-0.5;46.2
78679;BME280;67994;59.334;13.528;2023-03-04T02:58:00;100600.0;;;-0.5;46.1
78679;BME280;67994;59.334;13.528;2023-03-04T02:59:00;100600.0;;;-0.5;46.6
78679;BME280;67994;59.334;13.528;2023-03-04T03:00:00;100600.0;;;-0.5;46.3
78679;BME280;67994;59.334;13.528;2023-03-04T03:01:00;100600.0;;;-0.5;46.5
78679;BME280;67994;59.334;13.528;2023-03-04T03:02:00;100600.0;;;-0.4;45.7
78679;BME280;67994;59.334;13.528;2023-03-04T03:03:00;100600.0;;;-0.4;46.2
78679;BME280;67994;59.334;13.528;2023-03-04T03:04:00;100600.0;;;-0.5;46.2
78679;BME280;67994;59.334;13.528;2023-03-04T03:05:00;100600.0;;;-0.6;46.0
78679;BME280;67994;59.334;13.528;2023-03-04T03:06:00;100600.0;;;-0.5;45.7
78679;BME280;67994;59.334;13.528;2023-03-04T03:07:00;100600.0;;;-0.6;46.0
78679;BME280;67994;59.334;13.528;2023-03-04T03:08:00;100600.0;;;-0.6;45.9
78679;BME280;67994;59.334;13.528;2023-03-04T03:09:00;100600.0;;;-0.6;45.6
78679;BME280;67994;59.334;13.528;2023-03-04T03:10:00;100600.0;;;-0.6;45.8
78679;BME280;67994;59.334;13.528;2023-03-04T03:11:00;100600.0;;;-0.7;46.2
78679;BME280;67994;59.334;13.528;2023-03-04T03:12:00;100600.0;;;-0.7;45.9
78679;BME280;67994;59.334;13.528;2023-03-04T03:13:00;100700.0;;;-0.8;45.9
78679;BME280;67994;59.334;13.528;2023-03-04T03:14:00;100600.0;;;-0.7;45.6
78679;BME280;67994;59.334;13.528;2023-03-04T03:15:00;100600.0;;;-0.8;45.7
78679;BME280;67994;59.334;13.528;2023-03-04T03:16:00;100700.0;;;-0.8;45.3
78679;BME280;67994;59.334;13.528;2023-03-04T03:17:00;100700.0;;;-0.8;44.8
78679;BME280;67994;59.334;13.528;2023-03-04T03:18:00;100600.0;;;-0.7;44.7
78679;BME280;67994;59.334;13.528;2023-03-04T03:19:00;100700.0;;;-0.7;44.9
78679;BME280;67994;59.334;13.528;2023-03-04T03:20:00;100700.0;;;-0.8;44.6
78679;BME280;67994;59.334;13.528;2023-03-04T03:21:00;100700.0;;;-0.8;45.2
78679;BME280;67994;59.334;13.528;2023-03-04T03:22:00;100700.0;;;-0.9;45.7
78679;BME280;67994;59.334;13.528;2023-03-04T03:23:00;100700.0;;;-0.8;45.5
78679;BME280;67994;59.334;13.528;2023-03-04T03:24:00;100700.0;;;-0.8;45.0
78679;BME280;67994;59.334;13.528;2023-03-04T03:25:00;100700.0;;;-0.9;45.0
78679;BME280;67994;59.334;13.528;2023-03-04T03:26:01;100700.0;;;-0.9;44.9
78679;BME280;67994;59.334;13.528;2023-03-04T03:27:00;100700.0;;;-0.9;45.0
78679;BME280;67994;59.334;13.528;2023-03-04T03:28:00;100700.0;;;-0.9;44.9
78679;BME280;67994;59.334;13.528;2023-03-04T03:29:00;100700.0;;;-0.9;44.5
78679;BME280;67994;59.334;13.528;2023-03-04T03:30:00;100700.0;;;-0.9;44.9
78679;BME280;67994;59.334;13.528;2023-03-04T03:31:00;100700.0;;;-0.9;44.8
78679;BME280;67994;59.334;13.528;2023-03-04T03:32:00;100700.0;;;-0.9;45.1
78679;BME280;67994;59.334;13.528;2023-03-04T03:33:00;100700.0;;;-1.0;45.6
78679;BME280;67994;59.334;13.528;2023-03-04T03:34:00;100700.0;;;-0.9;45.1
78679;BME280;67994;59.334;13.528;2023-03-04T03:35:00;100700.0;;;-0.9;44.9
78679;BME280;67994;59.334;13.528;2023-03-04T03:36:00;100700.0;;;-1.0;44.8
78679;BME280;67994;59.334;13.528;2023-03-04T03:37:00;100700.0;;;-1.0;44.7
78679;BME280;67994;59.334;13.528;2023-03-04T03:38:00;100700.0;;;-1.0;44.5
78679;BME280;67994;59.334;13.528;2023-03-04T03:39:00;100700.0;;;-1.0;44.5
78679;BME280;67994;59.334;13.528;2023-03-04T03:40:00;100700.0;;;-1.0;44.5
78679;BME280;67994;59.334;13.528;2023-03-04T03:41:00;100700.0;;;-1.1;44.0
78679;BME280;67994;59.334;13.528;2023-03-04T03:42:00;100700.0;;;-1.0;44.1
78679;BME280;67994;59.334;13.528;2023-03-04T03:43:00;100700.0;;;-1.1;44.0
78679;BME280;67994;59.334;13.528;2023-03-04T03:44:00;100700.0;;;-1.1;43.9
78679;BME280;67994;59.334;13.528;2023-03-04T03:45:00;100700.0;;;-1.1;44.2
78679;BME280;67994;59.334;13.528;2023-03-04T03:46:00;100700.0;;;-1.1;43.6
78679;BME280;67994;59.334;13.528;2023-03-04T03:47:01;100700.0;;;-1.1;43.6
78679;BME280;67994;59.334;13.528;2023-03-04T03:48:00;100700.0;;;-1.0;43.8
78679;BME280;67994;59.334;13.528;2023-03-04T03:49:00;100700.0;;;-1.2;44.9
78679;BME280;67994;59.334;13.528;2023-03-04T03:50:00;100700.0;;;-1.2;45.0
78679;BME280;67994;59.334;13.528;2023-03-04T03:51:00;100700.0;;;-1.1;44.3
78679;BME280;67994;59.334;13.528;2023-03-04T03:52:00;100700.0;;;-1.2;44.6
78679;BME280;67994;59.334;13.528;2023-03-04T03:53:00;100700.0;;;-1.3;45.1
78679;BME280;67994;59.334;13.528;2023-03-04T03:54:00;100700.0;;;-1.3;45.2
78679;BME280;67994;59.334;13.528;2023-03-04T03:55:00;100700.0;;;-1.2;45.0
78679;BME280;67994;59.334;13.528;2023-03-04T03:56:00;100700.0;;;-1.2;45.3
78679;BME280;67994;59.334;13.528;2023-03-04T03:57:00;100700.0;;;-1.2;46.1
78679;BME280;67994;59.334;13.528;2023-03-04T03:58:00;100700.0;;;-1.3;45.8
78679;BME280;67994;59.334;13.528;2023-03-04T03:59:00;100700.0;;;-1.3;46.1
78679;BME280;67994;59.334;13.528;2023-03-04T04:00:00;100700.0;;;-1.3;46.6
78679;BME280;67994;59.334;13.528;2023-03-04T04:01:00;100700.0;;;-1.4;46.8
78679;BME280;67994;59.334;13.528;2023-03-04T04:02:00;100700.0;;;-1.3;46.6
78679;BME280;67994;59.334;13.528;2023-03-04T04:03:00;100700.0;;;-1.4;46.4
78679;BME280;67994;59.334;13.528;2023-03-04T04:04:00;100700.0;;;-1.3;46.6
78679;BME280;67994;59.334;13.528;2023-03-04T04:05:00;100700.0;;;-1.4;46.5
78679;BME280;67994;59.334;13.528;2023-03-04T04:06:00;100700.0;;;-1.4;46.2
78679;BME280;67994;59.334;13.528;2023-03-04T04:07:00;100700.0;;;-1.4;46.5
78679;BME280;67994;59.334;13.528;2023-03-04T04:08:00;100700.0;;;-1.4;46.0
78679;BME280;67994;59.334;13.528;2023-03-04T04:09:00;100700.0;;;-1.4;46.2
78679;BME280;67994;59.334;13.528;2023-03-04T04:10:00;100700.0;;;-1.4;46.2
78679;BME280;67994;59.334;13.528;2023-03-04T04:11:00;100700.0;;;-1.4;46.2
78679;BME280;67994;59.334;13.528;2023-03-04T04:12:00;100700.0;;;-1.5;47.0
78679;BME280;67994;59.334;13.528;2023-03-04T04:13:00;100700.0;;;-1.5;46.8
78679;BME280;67994;59.334;13.528;2023-03-04T04:14:00;100700.0;;;-1.5;46.5
78679;BME280;67994;59.334;13.528;2023-03-04T04:15:00;100700.0;;;-1.5;46.1
78679;BME280;67994;59.334;13.528;2023-03-04T04:16:00;100700.0;;;-1.5;45.4
78679;BME280;67994;59.334;13.528;2023-03-04T04:17:00;100700.0;;;-1.4;45.7
78679;BME280;67994;59.334;13.528;2023-03-04T04:18:00;100700.0;;;-1.5;46.0
78679;BME280;67994;59.334;13.528;2023-03-04T04:19:00;100700.0;;;-1.4;44.8
78679;BME280;67994;59.334;13.528;2023-03-04T04:20:00;100700.0;;;-1.4;44.8
78679;BME280;67994;59.334;13.528;2023-03-04T04:21:00;100700.0;;;-1.4;44.9
78679;BME280;67994;59.334;13.528;2023-03-04T04:22:00;100700.0;;;-1.4;44.9
78679;BME280;67994;59.334;13.528;2023-03-04T04:23:00;100700.0;;;-1.4;45.0
78679;BME280;67994;59.334;13.528;2023-03-04T04:24:00;100700.0;;;-1.5;45.3
78679;BME280;67994;59.334;13.528;2023-03-04T04:25:00;100700.0;;;-1.5;45.0
78679;BME280;67994;59.334;13.528;2023-03-04T04:26:00;100700.0;;;-1.4;45.1
78679;BME280;67994;59.334;13.528;2023-03-04T04:27:00;100700.0;;;-1.4;44.4
78679;BME280;67994;59.334;13.528;2023-03-04T04:28:00;100700.0;;;-1.4;44.6
78679;BME280;67994;59.334;13.528;2023-03-04T04:29:00;100700.0;;;-1.5;44.7
78679;BME280;67994;59.334;13.528;2023-03-04T04:30:00;100700.0;;;-1.5;44.9
78679;BME280;67994;59.334;13.528;2023-03-04T04:31:00;100700.0;;;-1.4;44.0
78679;BME280;67994;59.334;13.528;2023-03-04T04:32:00;100700.0;;;-1.5;44.2
78679;BME280;67994;59.334;13.528;2023-03-04T04:33:00;100700.0;;;-1.5;44.9
78679;BME280;67994;59.334;13.528;2023-03-04T04:34:00;100700.0;;;-1.5;45.3
78679;BME280;67994;59.334;13.528;2023-03-04T04:35:00;100700.0;;;-1.6;46.1
78679;BME280;67994;59.334;13.528;2023-03-04T04:36:00;100700.0;;;-1.6;45.4
78679;BME280;67994;59.334;13.528;2023-03-04T04:37:00;100700.0;;;-1.6;45.4
78679;BME280;67994;59.334;13.528;2023-03-04T04:38:00;100700.0;;;-1.6;45.8
78679;BME280;67994;59.334;13.528;2023-03-04T04:39:00;100700.0;;;-1.6;45.8
78679;BME280;67994;59.334;13.528;2023-03-04T04:40:00;100700.0;;;-1.7;45.4
78679;BME280;67994;59.334;13.528;2023-03-04T04:41:00;100700.0;;;-1.7;45.9
78679;BME280;67994;59.334;13.528;2023-03-04T04:42:00;100700.0;;;-1.6;45.8
78679;BME280;67994;59.334;13.528;2023-03-04T04:43:00;100700.0;;;-1.6;45.5
78679;BME280;67994;59.334;13.528;2023-03-04T04:44:00;100700.0;;;-1.7;44.9
78679;BME280;67994;59.334;13.528;2023-03-04T04:45:00;100700.0;;;-1.6;45.0
78679;BME280;67994;59.334;13.528;2023-03-04T04:46:00;100700.0;;;-1.7;45.0
78679;BME280;67994;59.334;13.528;2023-03-04T04:47:00;100700.0;;;-1.7;45.3
78679;BME280;67994;59.334;13.528;2023-03-04T04:48:00;100700.0;;;-1.7;45.2
78679;BME280;67994;59.334;13.528;2023-03-04T04:49:00;100700.0;;;-1.7;45.1
78679;BME280;67994;59.334;13.528;2023-03-04T04:50:00;100700.0;;;-1.6;44.8
78679;BME280;67994;59.334;13.528;2023-03-04T04:51:00;100700.0;;;-1.7;45.3
78679;BME280;67994;59.334;13.528;2023-03-04T04:52:00;100700.0;;;-1.7;45.5
78679;BME280;67994;59.334;13.528;2023-03-04T04:53:00;100700.0;;;-1.7;45.8
78679;BME280;67994;59.334;13.528;2023-03-04T04:54:00;100700.0;;;-1.7;45.4
78679;BME280;67994;59.334;13.528;2023-03-04T04:55:01;100700.0;;;-1.7;46.0
78679;BME280;67994;59.334;13.528;2023-03-04T04:56:07;100700.0;;;-1.7;45.7
78679;BME280;67994;59.334;13.528;2023-03-04T04:57:00;100700.0;;;-1.7;45.7
78679;BME280;67994;59.334;13.528;2023-03-04T04:58:00;100700.0;;;-1.7;45.7
78679;BME280;67994;59.334;13.528;2023-03-04T04:59:03;100700.0;;;-1.8;46.0
78679;BME280;67994;59.334;13.528;2023-03-04T05:00:00;100700.0;;;-1.7;45.7
78679;BME280;67994;59.334;13.528;2023-03-04T05:01:00;100700.0;;;-1.8;45.9
78679;BME280;67994;59.334;13.528;2023-03-04T05:02:00;100700.0;;;-1.8;46.1
78679;BME280;67994;59.334;13.528;2023-03-04T05:03:00;100700.0;;;-1.8;45.6
78679;BME280;67994;59.334;13.528;2023-03-04T05:04:00;100700.0;;;-1.8;45.3
78679;BME280;67994;59.334;13.528;2023-03-04T05:05:00;100700.0;;;-1.8;45.4
78679;BME280;67994;59.334;13.528;2023-03-04T05:06:00;100700.0;;;-1.7;45.3
78679;BME280;67994;59.334;13.528;2023-03-04T05:07:00;100700.0;;;-1.9;45.7
78679;BME280;67994;59.334;13.528;2023-03-04T05:08:00;100700.0;;;-1.8;46.3
78679;BME280;67994;59.334;13.528;2023-03-04T05:09:00;100700.0;;;-1.7;45.5
78679;BME280;67994;59.334;13.528;2023-03-04T05:10:00;100700.0;;;-1.7;45.7
78679;BME280;67994;59.334;13.528;2023-03-04T05:11:01;100700.0;;;-1.8;46.0
78679;BME280;67994;59.334;13.528;2023-03-04T05:12:00;100700.0;;;-1.8;45.8
78679;BME280;67994;59.334;13.528;2023-03-04T05:13:00;100700.0;;;-1.7;45.8
78679;BME280;67994;59.334;13.528;2023-03-04T05:14:00;100700.0;;;-1.8;45.7
78679;BME280;67994;59.334;13.528;2023-03-04T05:15:00;100700.0;;;-1.8;46.3
78679;BME280;67994;59.334;13.528;2023-03-04T05:16:01;100700.0;;;-1.8;46.4
78679;BME280;67994;59.334;13.528;2023-03-04T05:17:00;100700.0;;;-1.8;47.2
78679;BME280;67994;59.334;13.528;2023-03-04T05:18:00;100700.0;;;-1.9;47.4
78679;BME280;67994;59.334;13.528;2023-03-04T05:19:00;100700.0;;;-1.8;46.4
78679;BME280;67994;59.334;13.528;2023-03-04T05:20:00;100700.0;;;-1.9;46.3
78679;BME280;67994;59.334;13.528;2023-03-04T05:21:02;100700.0;;;-2.0;46.6
78679;BME280;67994;59.334;13.528;2023-03-04T05:22:00;100700.0;;;-1.9;46.6
78679;BME280;67994;59.334;13.528;2023-03-04T05:23:00;100700.0;;;-1.9;46.0